Tibbee, Mississippi
Current Conditions -  °F | °C
As of 11:15 AM on Saturday 25 Oct 2014 (Local Time) from KSTF Reporting Station
Clear Clear  
Wind Chill: 72°   Ceiling: Unl
Heat Index: 72°   Visibility: 10mi
Dew Point: 57°   Wind: 3mph
Humidity: 60%   Direction: 290°WNW
Pressure: 30.14"   Gusts: NA
Location:  33.6681°N, 88.7618°W
Report Text: KSTF 251615Z AUTO 29003KT 10SM CLR 22/14 A3014 RMK AO2
Loading
Personal Weather Stations






























Interactive Weather Map
Tropical Storm Tracking
New forecast layout! Learn more

10-Day Weather Forecast

Advertisements
Track Severe Weather on mobile